Terminal Aerodrome Forecast
Issued by NWS Mt. Holly, NJ

Home | Current Version | Previous Version | Text Only | Print | Product List | Glossary On
Versions: 1 2 3 4 5 6 7 8 9 10 11 12 13 14 15 16 17 18 19 20 21 22 23 24 25 26 27 28 29
000
FTUS41 KPHI 241700
TAFPHL
TAF
KPHL 241734Z 2418/2524 21018G26KT P6SM BKN025 BKN035
     FM242000 21018G30KT P6SM SCT025 BKN040
     FM242200 21012G20KT P6SM SCT025 BKN050
     FM250000 22009KT P6SM BKN060
      TEMPO 2504/2508 BKN025
     FM250800 28007KT P6SM SCT025 BKN050
     FM251500 28011G20KT P6SM BKN200=

USA.gov is the U.S. government's official web portal to all federal, state and local government web resources and services.